createdAt,value
2018-07-07T00:01:20.673Z,132.87
2018-07-07T00:03:48.441Z,78.43
2018-07-07T00:06:16.620Z,27.47
2018-07-07T00:08:44.435Z,26.27
2018-07-07T00:11:12.750Z,24.43
2018-07-07T00:13:41.468Z,22.33
2018-07-07T00:16:09.411Z,22.73
2018-07-07T00:18:37.954Z,25.37
2018-07-07T00:21:06.802Z,25.77
2018-07-07T00:23:34.711Z,19.30
2018-07-07T00:26:03.273Z,23.30
2018-07-07T00:28:31.358Z,23.00
2018-07-07T00:30:59.076Z,20.47
2018-07-07T00:33:27.586Z,22.50
2018-07-07T00:35:55.689Z,29.60
2018-07-07T00:38:23.611Z,21.67
2018-07-07T00:40:51.507Z,23.13
2018-07-07T00:43:20.318Z,21.10
2018-07-07T00:45:48.833Z,26.47
2018-07-07T00:48:16.718Z,21.27
2018-07-07T00:50:45.552Z,25.40
2018-07-07T00:53:13.478Z,34.53
2018-07-07T00:55:41.479Z,16.57
2018-07-07T00:58:09.281Z,17.97
2018-07-07T01:00:42.394Z,16.87
2018-07-07T01:03:10.468Z,18.30
2018-07-07T01:05:38.931Z,21.50
2018-07-07T01:08:06.897Z,23.40
2018-07-07T01:10:34.848Z,24.03
2018-07-07T01:13:02.637Z,23.10
2018-07-07T01:15:30.604Z,26.70
2018-07-07T01:17:58.462Z,31.93
2018-07-07T01:20:26.420Z,87.83
2018-07-07T01:22:54.193Z,28.63
2018-07-07T01:25:22.096Z,22.43
2018-07-07T01:27:50.038Z,25.63
2018-07-07T01:30:17.827Z,67.40
2018-07-07T01:32:45.720Z,1065.83
2018-07-07T01:35:13.619Z,20.97
2018-07-07T01:37:41.435Z,77.00
2018-07-07T01:40:09.293Z,79.90
2018-07-07T01:42:36.964Z,44.47
2018-07-07T01:45:05.316Z,19.37
2018-07-07T01:47:33.381Z,15.03
2018-07-07T01:50:01.165Z,67.60
2018-07-07T01:52:28.892Z,186.03
2018-07-07T01:54:57.003Z,6.40
2018-07-07T01:57:24.905Z,3.23
2018-07-07T01:59:53.332Z,4.13
2018-07-07T02:02:21.228Z,2.83
2018-07-07T02:04:49.013Z,12.90
2018-07-07T02:07:16.679Z,4.10
2018-07-07T02:09:44.390Z,3.27
2018-07-07T02:12:12.056Z,4.07
2018-07-07T02:14:40.360Z,5.23
2018-07-07T02:17:08.449Z,11.23
2018-07-07T02:19:36.419Z,9.70
2018-07-07T02:22:04.235Z,3.17
2018-07-07T02:24:32.068Z,2.97
2018-07-07T02:26:59.989Z,2.37
2018-07-07T02:29:27.826Z,4.60
2018-07-07T02:31:55.657Z,4.33
2018-07-07T02:34:24.520Z,7.77
2018-07-07T02:36:53.690Z,4.53
2018-07-07T02:39:21.645Z,3.83
2018-07-07T02:41:49.565Z,83.07
2018-07-07T02:44:17.360Z,415.43
2018-07-07T02:46:45.246Z,16.67
2018-07-07T02:49:13.224Z,94.93
2018-07-07T02:51:41.348Z,269.23
2018-07-07T02:54:09.137Z,23.37
2018-07-07T02:56:36.952Z,98.63
2018-07-07T02:59:04.900Z,56.07
2018-07-07T03:01:32.797Z,48.87
2018-07-07T03:04:00.621Z,27.33
2018-07-07T03:06:28.518Z,59.83
2018-07-07T03:08:56.186Z,74.80
2018-07-07T03:11:23.848Z,65.73
2018-07-07T03:13:51.765Z,76.00
2018-07-07T03:16:19.624Z,57.20
2018-07-07T03:18:47.565Z,52.97
2018-07-07T03:21:15.533Z,54.80
2018-07-07T03:23:44.484Z,64.77
2018-07-07T03:26:12.269Z,1999.90
2018-07-07T03:28:39.979Z,1999.90
2018-07-07T03:31:08.107Z,1999.90
2018-07-07T03:33:36.012Z,86.07
2018-07-07T03:36:03.902Z,46.00
2018-07-07T03:38:31.687Z,2.80
2018-07-07T03:40:59.552Z,2.90
2018-07-07T03:43:27.931Z,3.60
2018-07-07T03:45:56.428Z,1999.90
2018-07-07T03:48:24.486Z,1999.90
2018-07-07T03:50:52.467Z,1999.90
2018-07-07T03:53:21.135Z,1999.90
2018-07-07T03:55:49.046Z,1999.90
2018-07-07T03:58:16.918Z,105.70
2018-07-07T04:00:45.273Z,39.30
2018-07-07T04:03:13.249Z,1999.90
2018-07-07T04:05:41.111Z,1999.90
2018-07-07T04:08:09.260Z,1999.90
2018-07-07T04:10:37.784Z,1999.90
2018-07-07T04:13:05.669Z,1999.90
2018-07-07T04:15:33.537Z,1999.90
2018-07-07T04:18:01.338Z,196.40
2018-07-07T04:20:29.537Z,8.60
2018-07-07T04:22:57.393Z,4.60
2018-07-07T04:25:25.801Z,82.20
2018-07-07T04:27:53.508Z,1999.90
2018-07-07T04:30:21.986Z,804.43
2018-07-07T04:32:49.826Z,154.43
2018-07-07T04:35:17.866Z,55.33
2018-07-07T04:37:46.144Z,6.57
2018-07-07T04:40:14.004Z,4.40
2018-07-07T04:42:41.745Z,2.50
2018-07-07T04:45:09.679Z,1999.90
2018-07-07T04:47:37.652Z,80.93
2018-07-07T04:50:05.670Z,8.17
2018-07-07T04:52:33.698Z,1361.83
2018-07-07T04:55:01.527Z,1999.90
2018-07-07T04:57:29.288Z,93.37
2018-07-07T04:59:57.181Z,13.47
2018-07-07T05:02:24.961Z,13.63
2018-07-07T05:04:52.782Z,0.20
2018-07-07T05:07:20.460Z,2.47
2018-07-07T05:09:48.241Z,0.60
2018-07-07T05:12:16.094Z,0.40
2018-07-07T05:14:43.921Z,0.37
2018-07-07T05:17:12.520Z,0.50
2018-07-07T05:19:40.464Z,0.30
2018-07-07T05:22:08.373Z,4.90
2018-07-07T05:24:36.329Z,11.50
2018-07-07T05:27:04.978Z,7.17
2018-07-07T05:29:32.997Z,10.90
2018-07-07T05:32:00.945Z,4.93
2018-07-07T05:34:28.972Z,15.93
2018-07-07T05:36:56.800Z,48.60
2018-07-07T05:39:24.541Z,12.33
2018-07-07T05:41:52.392Z,8.57
2018-07-07T05:44:20.222Z,4.10
2018-07-07T05:46:48.159Z,33.23
2018-07-07T05:49:17.057Z,66.40
2018-07-07T05:51:46.005Z,18.33
2018-07-07T05:54:13.921Z,7.97
2018-07-07T05:56:41.916Z,5.40
2018-07-07T05:59:09.813Z,9.67
2018-07-07T06:01:37.846Z,13.80
2018-07-07T06:04:05.716Z,5.23
2018-07-07T06:06:34.610Z,8.10
2018-07-07T06:09:02.406Z,7.40
2018-07-07T06:11:30.376Z,3.97
2018-07-07T06:13:58.384Z,2.93
2018-07-07T06:16:26.317Z,4.50
2018-07-07T06:18:54.165Z,3.60
2018-07-07T06:21:21.866Z,9.90
2018-07-07T06:23:49.940Z,4.93
2018-07-07T06:26:17.780Z,11.63
2018-07-07T06:28:45.627Z,9.67
2018-07-07T06:31:13.656Z,11.73
2018-07-07T06:33:41.545Z,4.57
2018-07-07T06:36:09.577Z,8.50
2018-07-07T06:38:37.586Z,310.80
2018-07-07T06:41:05.463Z,33.50
2018-07-07T06:43:33.597Z,78.03
2018-07-07T06:46:01.365Z,72.13
2018-07-07T06:48:29.029Z,7.80
2018-07-07T06:50:56.757Z,6.07
2018-07-07T06:53:24.736Z,1.83
2018-07-07T06:55:52.800Z,25.33
2018-07-07T06:58:20.789Z,6.20
2018-07-07T07:00:48.593Z,4.63
2018-07-07T07:03:16.381Z,6.53
2018-07-07T07:05:44.407Z,1.47
2018-07-07T07:08:12.184Z,4.20
2018-07-07T07:10:40.049Z,4.93
2018-07-07T07:13:08.628Z,10.07
2018-07-07T07:15:36.465Z,6.03
2018-07-07T07:18:04.255Z,7.77
2018-07-07T07:20:32.135Z,7.20
2018-07-07T07:23:00.501Z,4.97
2018-07-07T07:25:28.480Z,4.80
2018-07-07T07:27:56.517Z,6.00
2018-07-07T07:30:24.308Z,13.53
2018-07-07T07:32:52.003Z,7.10
2018-07-07T07:35:19.653Z,7.03
2018-07-07T07:37:47.429Z,3.77
2018-07-07T07:40:15.391Z,4.20
2018-07-07T07:42:43.287Z,5.13
2018-07-07T07:45:11.113Z,6.33
2018-07-07T07:47:39.046Z,12.30
2018-07-07T07:50:07.043Z,8.07
2018-07-07T07:52:35.040Z,6.50
2018-07-07T07:55:02.880Z,7.83
2018-07-07T07:57:30.954Z,3.70
2018-07-07T07:59:59.464Z,8.27
2018-07-07T08:02:27.730Z,4.17
2018-07-07T08:04:56.413Z,5.93
2018-07-07T08:07:24.256Z,6.97
2018-07-07T08:09:51.997Z,5.97
2018-07-07T08:12:19.932Z,4.60
2018-07-07T08:14:47.866Z,4.00
2018-07-07T08:17:15.640Z,10.37
2018-07-07T08:19:43.494Z,1.20
2018-07-07T08:22:11.263Z,8.97
2018-07-07T08:24:39.103Z,5.87
2018-07-07T08:27:06.897Z,6.47
2018-07-07T08:29:34.901Z,8.27
2018-07-07T08:32:02.728Z,7.40
2018-07-07T08:34:30.607Z,9.93
2018-07-07T08:36:58.512Z,8.00
2018-07-07T08:39:26.381Z,2.90
2018-07-07T08:41:54.447Z,9.87
2018-07-07T08:44:22.459Z,8.70
2018-07-07T08:46:50.259Z,5.27
2018-07-07T08:49:18.021Z,3.03
2018-07-07T08:51:46.026Z,3.63
2018-07-07T08:54:14.549Z,3.53
2018-07-07T08:56:42.502Z,4.77
2018-07-07T08:59:10.248Z,5.60
2018-07-07T09:01:38.251Z,8.50
2018-07-07T09:04:06.778Z,7.27
2018-07-07T09:06:34.801Z,3.33
2018-07-07T09:09:03.077Z,4.33
2018-07-07T09:11:30.971Z,4.87
2018-07-07T09:13:58.759Z,6.27
2018-07-07T09:16:26.702Z,3.63
2018-07-07T09:18:54.648Z,11.77
2018-07-07T09:21:22.715Z,5.00
2018-07-07T09:23:50.653Z,0.80
2018-07-07T09:26:18.972Z,11.27
2018-07-07T09:28:46.788Z,8.00
2018-07-07T09:31:14.557Z,7.67
2018-07-07T09:33:42.450Z,8.17
2018-07-07T09:36:10.486Z,3.63
2018-07-07T09:38:38.343Z,4.50
2018-07-07T09:41:06.185Z,16.60
2018-07-07T09:43:33.995Z,9.20
2018-07-07T09:46:01.805Z,3.03
2018-07-07T09:48:29.672Z,5.73
2018-07-07T09:50:58.489Z,5.27
2018-07-07T09:53:26.947Z,7.07
2018-07-07T09:55:54.964Z,6.77
2018-07-07T09:58:22.895Z,4.90
2018-07-07T10:00:50.786Z,2.50
2018-07-07T10:03:18.725Z,11.50
2018-07-07T10:05:46.792Z,7.40
2018-07-07T10:08:14.780Z,3.80
2018-07-07T10:10:42.583Z,6.93
2018-07-07T10:13:10.532Z,4.50
2018-07-07T10:15:38.365Z,8.17
2018-07-07T10:18:06.268Z,7.13
2018-07-07T10:20:34.168Z,2.67
2018-07-07T10:23:03.155Z,8.70
2018-07-07T10:25:31.015Z,6.13
2018-07-07T10:27:58.997Z,10.73
2018-07-07T10:30:26.968Z,6.37
2018-07-07T10:32:54.861Z,3.33
2018-07-07T10:35:22.876Z,12.23
2018-07-07T10:37:50.877Z,2.77
2018-07-07T10:40:18.875Z,8.43
2018-07-07T10:42:47.456Z,2.10
2018-07-07T10:45:16.362Z,7.57
2018-07-07T10:47:44.352Z,6.23
2018-07-07T10:50:12.221Z,1.47
2018-07-07T10:52:40.187Z,14.20
2018-07-07T10:55:08.283Z,4.73
2018-07-07T10:57:36.213Z,2.93
2018-07-07T11:00:04.486Z,3.40
2018-07-07T11:02:32.504Z,4.20
2018-07-07T11:05:00.437Z,7.47
2018-07-07T11:07:28.257Z,3.13
2018-07-07T11:09:55.992Z,4.43
2018-07-07T11:12:23.732Z,5.13
2018-07-07T11:14:51.669Z,5.10
2018-07-07T11:17:19.535Z,7.80
2018-07-07T11:19:47.463Z,7.47
2018-07-07T11:22:15.236Z,6.43
2018-07-07T11:24:43.049Z,3.77
2018-07-07T11:27:11.066Z,6.30
2018-07-07T11:29:39.112Z,4.53
2018-07-07T11:32:06.858Z,3.90
2018-07-07T11:34:34.768Z,7.90
2018-07-07T11:37:02.663Z,7.37
2018-07-07T11:39:30.541Z,4.87
2018-07-07T11:41:58.449Z,8.57
2018-07-07T11:44:26.477Z,6.43
2018-07-07T11:46:54.401Z,10.50
2018-07-07T11:49:22.348Z,8.23
2018-07-07T11:51:50.154Z,6.37
2018-07-07T11:54:18.113Z,6.57
2018-07-07T11:56:45.985Z,6.70
2018-07-07T11:59:14.026Z,4.00
2018-07-07T12:01:42.144Z,6.37
2018-07-07T12:04:10.020Z,10.93
2018-07-07T12:06:37.868Z,2.67
2018-07-07T12:09:05.872Z,6.63
2018-07-07T12:11:33.996Z,8.50
2018-07-07T12:14:01.905Z,6.73
2018-07-07T12:16:29.896Z,4.33
2018-07-07T12:18:58.456Z,12.97
2018-07-07T12:21:26.401Z,3.67
2018-07-07T12:23:54.240Z,7.20
2018-07-07T12:26:22.172Z,1.37
2018-07-07T12:28:50.348Z,9.07
2018-07-07T12:31:18.014Z,11.33
2018-07-07T12:33:46.097Z,4.13
2018-07-07T12:36:14.066Z,7.80
2018-07-07T12:38:42.027Z,8.63
2018-07-07T12:41:09.937Z,7.20
2018-07-07T12:43:38.024Z,4.23
2018-07-07T12:46:06.014Z,2.67
2018-07-07T12:48:33.823Z,9.40
2018-07-07T12:51:01.457Z,5.30
2018-07-07T12:53:29.312Z,2.47
2018-07-07T12:55:57.090Z,11.10
2018-07-07T12:58:24.897Z,8.17
2018-07-07T13:00:52.825Z,2.00
2018-07-07T13:03:20.706Z,6.70
2018-07-07T13:05:48.524Z,9.13
2018-07-07T13:08:16.444Z,6.97
2018-07-07T13:10:44.445Z,4.57
2018-07-07T13:13:12.511Z,5.40
2018-07-07T13:15:41.167Z,6.13
2018-07-07T13:18:08.996Z,8.17
2018-07-07T13:20:36.888Z,6.80
2018-07-07T13:23:06.212Z,8.93
2018-07-07T13:25:34.169Z,5.80
2018-07-07T13:28:03.237Z,5.37
2018-07-07T13:30:31.084Z,3.63
2018-07-07T13:32:59.037Z,3.53
2018-07-07T13:35:27.146Z,4.60
2018-07-07T13:37:55.145Z,4.90
2018-07-07T13:40:22.904Z,4.70
2018-07-07T13:42:50.709Z,8.10
2018-07-07T13:45:18.672Z,7.63
2018-07-07T13:47:46.968Z,6.43
2018-07-07T13:50:14.858Z,5.83
2018-07-07T13:52:42.940Z,2.40
2018-07-07T13:55:10.911Z,5.87
2018-07-07T13:57:39.444Z,3.13
2018-07-07T14:00:07.483Z,6.10
2018-07-07T14:02:36.064Z,7.17
2018-07-07T14:05:04.528Z,7.10
2018-07-07T14:07:32.333Z,3.33
2018-07-07T14:10:00.561Z,9.30
2018-07-07T14:12:28.461Z,77.57
2018-07-07T14:14:56.578Z,3.57
2018-07-07T14:17:24.482Z,2.90
2018-07-07T14:19:52.474Z,0.60
2018-07-07T14:22:20.354Z,0.40
2018-07-07T14:24:48.298Z,1.50
2018-07-07T14:27:15.995Z,0.83
2018-07-07T14:29:43.953Z,0.27
2018-07-07T14:32:11.809Z,2.20
2018-07-07T14:34:40.072Z,12.80
2018-07-07T14:37:07.835Z,9.33
2018-07-07T14:39:39.397Z,6.50
2018-07-07T14:42:11.554Z,6.97
2018-07-07T14:44:39.425Z,3.40
2018-07-07T14:47:07.448Z,6.62
2018-07-07T14:49:36.383Z,7.10
2018-07-07T14:52:04.380Z,8.90
2018-07-07T14:54:32.290Z,6.63
2018-07-07T14:57:00.175Z,3.33
2018-07-07T14:59:27.939Z,4.07
2018-07-07T15:01:55.901Z,5.77
2018-07-07T15:04:23.787Z,6.00
2018-07-07T15:06:51.841Z,3.37
2018-07-07T15:09:19.859Z,8.73
2018-07-07T15:11:47.765Z,9.80
2018-07-07T15:14:15.414Z,8.40
2018-07-07T15:16:43.999Z,12.60
2018-07-07T15:19:12.005Z,10.13
2018-07-07T15:21:40.028Z,5.60
2018-07-07T15:24:07.911Z,5.97
2018-07-07T15:26:36.027Z,5.40
2018-07-07T15:29:04.585Z,3.13
2018-07-07T15:31:32.381Z,5.30
2018-07-07T15:34:00.215Z,7.00
2018-07-07T15:36:28.861Z,4.60
2018-07-07T15:38:56.924Z,6.20
2018-07-07T15:41:24.728Z,4.87
2018-07-07T15:43:52.763Z,4.50
2018-07-07T15:46:20.696Z,5.57
2018-07-07T15:48:48.819Z,7.03
2018-07-07T15:51:16.790Z,5.47
2018-07-07T15:53:45.541Z,7.10
2018-07-07T15:56:13.645Z,4.80
2018-07-07T15:58:41.443Z,6.67
2018-07-07T16:01:09.213Z,5.90
2018-07-07T16:03:37.136Z,4.83
2018-07-07T16:06:05.421Z,9.37
2018-07-07T16:08:33.332Z,6.17
2018-07-07T16:11:01.161Z,11.33
2018-07-07T16:13:28.949Z,10.50
2018-07-07T16:15:56.677Z,9.73
2018-07-07T16:18:25.385Z,7.17
2018-07-07T16:20:53.233Z,3.40
2018-07-07T16:23:21.016Z,9.07
2018-07-07T16:25:49.012Z,9.90
2018-07-07T16:28:17.559Z,8.20
2018-07-07T16:30:45.416Z,7.73
2018-07-07T16:33:13.158Z,10.40
2018-07-07T16:35:41.229Z,4.10
2018-07-07T16:38:09.160Z,10.73
2018-07-07T16:40:37.153Z,7.90
2018-07-07T16:43:05.116Z,8.40
2018-07-07T16:45:33.108Z,7.27
2018-07-07T16:48:01.053Z,5.33
2018-07-07T16:50:29.408Z,7.27
2018-07-07T16:52:57.472Z,8.20
2018-07-07T16:55:25.863Z,6.03
2018-07-07T16:57:53.917Z,8.30
2018-07-07T17:00:21.791Z,6.00
2018-07-07T17:02:50.410Z,9.53
2018-07-07T17:05:18.297Z,9.90
2018-07-07T17:07:46.928Z,9.87
2018-07-07T17:10:15.592Z,9.03
2018-07-07T17:12:43.508Z,3.40
2018-07-07T17:15:11.486Z,6.20
2018-07-07T17:17:39.774Z,2.63
2018-07-07T17:20:07.850Z,5.90
2018-07-07T17:22:35.868Z,11.20
2018-07-07T17:25:03.708Z,6.03
2018-07-07T17:27:31.937Z,3.37
2018-07-07T17:30:00.368Z,7.00
2018-07-07T17:32:28.575Z,5.57
2018-07-07T17:34:56.620Z,4.63
2018-07-07T17:37:24.467Z,4.40
2018-07-07T17:39:52.848Z,4.50
2018-07-07T17:42:20.743Z,4.10
2018-07-07T17:44:48.940Z,3.37
2018-07-07T17:47:16.516Z,4.00
2018-07-07T17:49:44.223Z,8.03
2018-07-07T17:52:12.220Z,4.13
2018-07-07T17:54:40.147Z,6.03
2018-07-07T17:57:08.017Z,12.63
2018-07-07T17:59:35.764Z,6.33
2018-07-07T18:02:03.820Z,6.83
2018-07-07T18:04:31.437Z,9.27
2018-07-07T18:06:59.436Z,11.63
2018-07-07T18:09:27.293Z,4.33
2018-07-07T18:11:55.240Z,4.43
2018-07-07T18:14:23.071Z,8.93
2018-07-07T18:16:51.039Z,7.40
2018-07-07T18:19:19.023Z,6.70
2018-07-07T18:21:46.798Z,7.60
2018-07-07T18:24:14.511Z,6.37
2018-07-07T18:26:42.607Z,10.43
2018-07-07T18:29:10.426Z,10.47
2018-07-07T18:31:38.146Z,4.33
2018-07-07T18:34:06.181Z,9.97
2018-07-07T18:36:34.169Z,6.10
2018-07-07T18:39:02.021Z,6.43
2018-07-07T18:41:29.827Z,11.70
2018-07-07T18:43:57.648Z,4.40
2018-07-07T18:46:25.497Z,10.03
2018-07-07T18:48:53.369Z,4.60
2018-07-07T18:51:21.082Z,9.47
2018-07-07T18:53:48.953Z,7.00
2018-07-07T18:56:16.780Z,8.60
2018-07-07T18:58:44.724Z,12.33
2018-07-07T19:01:12.652Z,11.50
2018-07-07T19:03:40.557Z,8.20
2018-07-07T19:06:08.209Z,12.40
2018-07-07T19:08:35.992Z,7.33
2018-07-07T19:11:03.866Z,4.43
2018-07-07T19:13:31.625Z,8.87
2018-07-07T19:15:59.486Z,7.63
2018-07-07T19:18:27.105Z,12.50
2018-07-07T19:21:00.241Z,7.57
2018-07-07T19:23:33.194Z,6.47
2018-07-07T19:26:06.122Z,6.43
2018-07-07T19:28:33.987Z,9.00
2018-07-07T19:31:01.742Z,2.77
2018-07-07T19:33:34.716Z,10.63
2018-07-07T19:36:08.737Z,11.47
2018-07-07T19:38:36.493Z,11.93
2018-07-07T19:41:04.531Z,11.87
2018-07-07T19:43:32.492Z,5.87
2018-07-07T19:46:00.414Z,5.07
2018-07-07T19:48:28.461Z,15.57
2018-07-07T19:50:56.409Z,5.87
2018-07-07T19:53:24.461Z,15.10
2018-07-07T19:55:52.636Z,8.57
2018-07-07T19:58:20.893Z,9.10
2018-07-07T20:00:48.980Z,16.63
2018-07-07T20:03:16.809Z,11.20
2018-07-07T20:05:44.460Z,10.37
2018-07-07T20:08:12.304Z,9.87
2018-07-07T20:10:40.103Z,5.87
2018-07-07T20:13:07.909Z,6.13
2018-07-07T20:15:41.143Z,4.87
2018-07-07T20:18:09.059Z,18.00
2018-07-07T20:20:42.151Z,5.40
2018-07-07T20:23:12.847Z,6.70
2018-07-07T20:25:40.633Z,11.10
2018-07-07T20:28:13.854Z,6.90
2018-07-07T20:30:41.777Z,9.27
2018-07-07T20:33:09.714Z,11.60
2018-07-07T20:35:37.736Z,5.73
2018-07-07T20:38:05.721Z,11.23
2018-07-07T20:40:33.597Z,20.03
2018-07-07T20:43:01.302Z,10.37
2018-07-07T20:45:29.037Z,9.20
2018-07-07T20:47:56.937Z,11.20
2018-07-07T20:50:25.037Z,8.10
2018-07-07T20:52:52.969Z,12.93
2018-07-07T20:55:20.936Z,7.90
2018-07-07T20:57:48.976Z,9.60
2018-07-07T21:00:16.968Z,12.40
2018-07-07T21:02:44.898Z,8.30
2018-07-07T21:05:12.767Z,9.33
2018-07-07T21:07:40.803Z,15.80
2018-07-07T21:10:08.673Z,13.60
2018-07-07T21:12:36.372Z,6.90
2018-07-07T21:15:04.113Z,7.70
2018-07-07T21:17:32.108Z,13.40
2018-07-07T21:19:59.968Z,9.63
2018-07-07T21:22:27.761Z,8.60
2018-07-07T21:24:55.636Z,10.90
2018-07-07T21:27:23.601Z,11.90
2018-07-07T21:29:51.354Z,10.30
2018-07-07T21:32:19.228Z,7.50
2018-07-07T21:34:47.055Z,3.90
2018-07-07T21:37:14.981Z,6.33
2018-07-07T21:39:42.816Z,2.80
2018-07-07T21:42:10.667Z,9.87
2018-07-07T21:44:39.060Z,13.20
2018-07-07T21:47:06.877Z,9.33
2018-07-07T21:49:34.885Z,7.90
2018-07-07T21:52:02.724Z,12.27
2018-07-07T21:54:30.426Z,9.27
2018-07-07T21:56:58.376Z,7.93
2018-07-07T21:59:26.139Z,9.30
2018-07-07T22:01:59.614Z,6.80
2018-07-07T22:04:34.127Z,15.30
2018-07-07T22:07:07.730Z,9.37
2018-07-07T22:09:36.224Z,10.47
2018-07-07T22:12:04.505Z,12.40
2018-07-07T22:14:32.666Z,9.47
2018-07-07T22:17:00.579Z,13.23
2018-07-07T22:19:28.340Z,4.37
2018-07-07T22:22:00.319Z,11.27
2018-07-07T22:24:28.185Z,12.43
2018-07-07T22:27:00.280Z,13.37
2018-07-07T22:29:28.896Z,12.00
2018-07-07T22:31:58.076Z,12.93
2018-07-07T22:34:26.576Z,13.17
2018-07-07T22:36:54.701Z,5.37
2018-07-07T22:39:22.448Z,9.90
2018-07-07T22:41:51.186Z,6.70
2018-07-07T22:44:19.117Z,10.47
2018-07-07T22:46:46.954Z,11.13
2018-07-07T22:49:14.720Z,7.97
2018-07-07T22:51:42.749Z,9.20
2018-07-07T22:54:10.777Z,1666.40
2018-07-07T22:56:39.025Z,5.80
2018-07-07T22:59:06.996Z,3.13
2018-07-07T23:01:34.893Z,4.03
2018-07-07T23:04:02.858Z,17.13
2018-07-07T23:06:30.902Z,9.73
2018-07-07T23:08:58.788Z,2.77
2018-07-07T23:11:26.601Z,10.43
2018-07-07T23:13:54.724Z,9.47
2018-07-07T23:16:22.348Z,6.30
2018-07-07T23:18:49.953Z,2.97
2018-07-07T23:21:17.693Z,7.40
2018-07-07T23:23:45.394Z,7.83
2018-07-07T23:26:13.803Z,7.80
2018-07-07T23:28:41.763Z,2.00
2018-07-07T23:31:09.597Z,3.90
2018-07-07T23:33:37.424Z,2.73
2018-07-07T23:36:05.358Z,4.63
2018-07-07T23:38:33.185Z,1.93
2018-07-07T23:41:00.965Z,7.73
2018-07-07T23:43:28.992Z,3.50
2018-07-07T23:45:56.854Z,2.50
2018-07-07T23:48:24.541Z,3.10
2018-07-07T23:50:52.208Z,9.40
2018-07-07T23:53:20.240Z,5.20
2018-07-07T23:55:48.278Z,15.83
2018-07-07T23:58:16.257Z,10.30
